sensor_id;sensor_type;location;lat;lon;timestamp;P1;durP1;ratioP1;P2;durP2;ratioP2
75408;SDS011;63979;55.644;37.734;2023-08-17T00:02:56;23.42;;;9.02;;
75408;SDS011;63979;55.644;37.734;2023-08-17T00:07:59;19.90;;;8.15;;
75408;SDS011;63979;55.644;37.734;2023-08-17T00:13:01;17.90;;;8.18;;
75408;SDS011;63979;55.644;37.734;2023-08-17T00:18:04;14.48;;;7.68;;
75408;SDS011;63979;55.644;37.734;2023-08-17T00:23:05;19.58;;;8.38;;
75408;SDS011;63979;55.644;37.734;2023-08-17T00:28:06;14.68;;;8.55;;
75408;SDS011;63979;55.644;37.734;2023-08-17T00:33:07;15.93;;;7.90;;
75408;SDS011;63979;55.644;37.734;2023-08-17T00:38:08;21.85;;;8.32;;
75408;SDS011;63979;55.644;37.734;2023-08-17T00:43:09;14.60;;;8.32;;
75408;SDS011;63979;55.644;37.734;2023-08-17T00:48:10;14.10;;;7.65;;
75408;SDS011;63979;55.644;37.734;2023-08-17T00:53:11;15.00;;;7.88;;
75408;SDS011;63979;55.644;37.734;2023-08-17T00:58:14;20.95;;;8.52;;
75408;SDS011;63979;55.644;37.734;2023-08-17T01:03:15;15.65;;;7.72;;
75408;SDS011;63979;55.644;37.734;2023-08-17T01:08:18;16.73;;;7.60;;
75408;SDS011;63979;55.644;37.734;2023-08-17T01:13:21;19.25;;;7.60;;
75408;SDS011;63979;55.644;37.734;2023-08-17T01:18:29;14.27;;;7.20;;
75408;SDS011;63979;55.644;37.734;2023-08-17T01:23:34;17.50;;;7.00;;
75408;SDS011;63979;55.644;37.734;2023-08-17T01:28:35;19.92;;;8.82;;
75408;SDS011;63979;55.644;37.734;2023-08-17T01:33:49;18.60;;;8.25;;
75408;SDS011;63979;55.644;37.734;2023-08-17T01:38:53;15.27;;;8.57;;
75408;SDS011;63979;55.644;37.734;2023-08-17T01:43:57;20.60;;;8.30;;
75408;SDS011;63979;55.644;37.734;2023-08-17T01:48:59;15.13;;;8.27;;
75408;SDS011;63979;55.644;37.734;2023-08-17T01:54:03;18.88;;;8.40;;
75408;SDS011;63979;55.644;37.734;2023-08-17T02:04:06;15.05;;;8.38;;
75408;SDS011;63979;55.644;37.734;2023-08-17T02:09:07;14.15;;;7.40;;
75408;SDS011;63979;55.644;37.734;2023-08-17T02:14:08;15.10;;;9.05;;
75408;SDS011;63979;55.644;37.734;2023-08-17T02:19:09;12.18;;;8.07;;
75408;SDS011;63979;55.644;37.734;2023-08-17T02:24:10;17.50;;;8.50;;
75408;SDS011;63979;55.644;37.734;2023-08-17T02:29:11;17.48;;;8.60;;
75408;SDS011;63979;55.644;37.734;2023-08-17T02:34:12;16.65;;;8.73;;
75408;SDS011;63979;55.644;37.734;2023-08-17T02:39:13;17.05;;;10.48;;
75408;SDS011;63979;55.644;37.734;2023-08-17T02:44:14;21.23;;;9.82;;
75408;SDS011;63979;55.644;37.734;2023-08-17T02:49:16;23.35;;;10.18;;
75408;SDS011;63979;55.644;37.734;2023-08-17T02:54:17;19.55;;;8.70;;
75408;SDS011;63979;55.644;37.734;2023-08-17T02:59:18;17.17;;;7.90;;
75408;SDS011;63979;55.644;37.734;2023-08-17T03:04:18;17.42;;;8.40;;
75408;SDS011;63979;55.644;37.734;2023-08-17T03:09:20;14.88;;;7.80;;
75408;SDS011;63979;55.644;37.734;2023-08-17T03:14:21;20.20;;;8.98;;
75408;SDS011;63979;55.644;37.734;2023-08-17T03:19:22;17.98;;;9.25;;
75408;SDS011;63979;55.644;37.734;2023-08-17T03:24:23;18.88;;;9.68;;
75408;SDS011;63979;55.644;37.734;2023-08-17T03:29:24;21.67;;;9.02;;
75408;SDS011;63979;55.644;37.734;2023-08-17T03:34:26;20.27;;;9.80;;
75408;SDS011;63979;55.644;37.734;2023-08-17T03:39:27;23.00;;;9.93;;
75408;SDS011;63979;55.644;37.734;2023-08-17T03:44:28;22.08;;;9.93;;
75408;SDS011;63979;55.644;37.734;2023-08-17T03:49:29;26.55;;;11.40;;
75408;SDS011;63979;55.644;37.734;2023-08-17T03:54:31;27.60;;;12.75;;
75408;SDS011;63979;55.644;37.734;2023-08-17T04:04:33;21.77;;;11.80;;
75408;SDS011;63979;55.644;37.734;2023-08-17T04:14:35;19.17;;;10.48;;
75408;SDS011;63979;55.644;37.734;2023-08-17T04:24:36;18.95;;;9.50;;
75408;SDS011;63979;55.644;37.734;2023-08-17T04:34:38;12.20;;;7.70;;
75408;SDS011;63979;55.644;37.734;2023-08-17T04:39:41;12.98;;;7.47;;
75408;SDS011;63979;55.644;37.734;2023-08-17T04:44:43;17.70;;;9.00;;
75408;SDS011;63979;55.644;37.734;2023-08-17T04:49:44;16.33;;;8.70;;
75408;SDS011;63979;55.644;37.734;2023-08-17T04:54:45;17.17;;;8.25;;
75408;SDS011;63979;55.644;37.734;2023-08-17T04:59:47;11.05;;;6.45;;
75408;SDS011;63979;55.644;37.734;2023-08-17T05:04:48;14.77;;;6.70;;
75408;SDS011;63979;55.644;37.734;2023-08-17T05:09:50;12.15;;;5.03;;
75408;SDS011;63979;55.644;37.734;2023-08-17T05:14:51;8.73;;;4.65;;
75408;SDS011;63979;55.644;37.734;2023-08-17T05:19:52;10.00;;;4.80;;
75408;SDS011;63979;55.644;37.734;2023-08-17T05:24:53;8.23;;;4.93;;
75408;SDS011;63979;55.644;37.734;2023-08-17T05:29:54;9.50;;;4.57;;
75408;SDS011;63979;55.644;37.734;2023-08-17T05:34:55;6.35;;;3.50;;
75408;SDS011;63979;55.644;37.734;2023-08-17T05:39:56;7.13;;;3.75;;
75408;SDS011;63979;55.644;37.734;2023-08-17T05:44:57;7.38;;;4.07;;
75408;SDS011;63979;55.644;37.734;2023-08-17T05:49:58;7.55;;;3.75;;
75408;SDS011;63979;55.644;37.734;2023-08-17T05:54:59;6.68;;;3.58;;
75408;SDS011;63979;55.644;37.734;2023-08-17T06:00:00;4.32;;;2.97;;
75408;SDS011;63979;55.644;37.734;2023-08-17T06:05:01;8.73;;;3.55;;
75408;SDS011;63979;55.644;37.734;2023-08-17T06:10:03;11.48;;;4.00;;
75408;SDS011;63979;55.644;37.734;2023-08-17T06:15:06;4.65;;;3.40;;
75408;SDS011;63979;55.644;37.734;2023-08-17T06:20:08;5.90;;;3.35;;
75408;SDS011;63979;55.644;37.734;2023-08-17T06:25:10;5.07;;;3.45;;
75408;SDS011;63979;55.644;37.734;2023-08-17T06:30:11;6.85;;;3.60;;
75408;SDS011;63979;55.644;37.734;2023-08-17T06:35:12;5.88;;;3.28;;
75408;SDS011;63979;55.644;37.734;2023-08-17T06:40:13;5.13;;;2.95;;
75408;SDS011;63979;55.644;37.734;2023-08-17T06:45:14;6.38;;;2.95;;
75408;SDS011;63979;55.644;37.734;2023-08-17T06:50:19;5.30;;;2.38;;
75408;SDS011;63979;55.644;37.734;2023-08-17T06:55:20;4.15;;;2.60;;
75408;SDS011;63979;55.644;37.734;2023-08-17T07:00:21;4.50;;;3.10;;
75408;SDS011;63979;55.644;37.734;2023-08-17T07:05:22;4.15;;;2.55;;
75408;SDS011;63979;55.644;37.734;2023-08-17T07:10:24;4.03;;;2.50;;
75408;SDS011;63979;55.644;37.734;2023-08-17T07:15:26;5.10;;;2.58;;
75408;SDS011;63979;55.644;37.734;2023-08-17T07:20:27;4.13;;;2.35;;
75408;SDS011;63979;55.644;37.734;2023-08-17T07:25:28;3.35;;;2.22;;
75408;SDS011;63979;55.644;37.734;2023-08-17T07:30:29;5.40;;;2.50;;
75408;SDS011;63979;55.644;37.734;2023-08-17T07:35:31;2.88;;;2.22;;
75408;SDS011;63979;55.644;37.734;2023-08-17T07:40:31;2.50;;;2.22;;
75408;SDS011;63979;55.644;37.734;2023-08-17T07:45:33;4.95;;;2.08;;
75408;SDS011;63979;55.644;37.734;2023-08-17T07:50:34;4.50;;;2.30;;
75408;SDS011;63979;55.644;37.734;2023-08-17T07:55:35;3.08;;;2.03;;
75408;SDS011;63979;55.644;37.734;2023-08-17T08:00:36;2.30;;;2.08;;
75408;SDS011;63979;55.644;37.734;2023-08-17T08:05:37;5.40;;;2.70;;
75408;SDS011;63979;55.644;37.734;2023-08-17T08:10:38;2.78;;;2.10;;
75408;SDS011;63979;55.644;37.734;2023-08-17T08:15:38;4.85;;;2.20;;
75408;SDS011;63979;55.644;37.734;2023-08-17T08:20:40;4.53;;;2.17;;
75408;SDS011;63979;55.644;37.734;2023-08-17T08:25:41;4.65;;;2.50;;
75408;SDS011;63979;55.644;37.734;2023-08-17T08:30:41;3.03;;;2.50;;
75408;SDS011;63979;55.644;37.734;2023-08-17T08:35:42;2.55;;;2.20;;
75408;SDS011;63979;55.644;37.734;2023-08-17T08:40:43;6.55;;;3.03;;
75408;SDS011;63979;55.644;37.734;2023-08-17T08:45:47;4.35;;;2.00;;
75408;SDS011;63979;55.644;37.734;2023-08-17T08:50:50;4.32;;;2.22;;
75408;SDS011;63979;55.644;37.734;2023-08-17T08:55:55;4.68;;;2.70;;
75408;SDS011;63979;55.644;37.734;2023-08-17T09:00:59;5.15;;;2.90;;
75408;SDS011;63979;55.644;37.734;2023-08-17T09:06:03;4.35;;;2.58;;
75408;SDS011;63979;55.644;37.734;2023-08-17T09:11:08;3.65;;;2.50;;
75408;SDS011;63979;55.644;37.734;2023-08-17T09:16:09;6.22;;;2.50;;
75408;SDS011;63979;55.644;37.734;2023-08-17T09:21:20;3.40;;;2.20;;
75408;SDS011;63979;55.644;37.734;2023-08-17T09:26:23;4.03;;;2.42;;
75408;SDS011;63979;55.644;37.734;2023-08-17T09:31:24;3.78;;;2.72;;
75408;SDS011;63979;55.644;37.734;2023-08-17T09:36:25;2.92;;;2.63;;
75408;SDS011;63979;55.644;37.734;2023-08-17T09:41:26;3.95;;;2.75;;
75408;SDS011;63979;55.644;37.734;2023-08-17T09:46:29;2.88;;;2.10;;
75408;SDS011;63979;55.644;37.734;2023-08-17T09:51:30;6.22;;;3.60;;
75408;SDS011;63979;55.644;37.734;2023-08-17T09:56:31;4.43;;;3.00;;
75408;SDS011;63979;55.644;37.734;2023-08-17T10:01:33;3.08;;;2.67;;
75408;SDS011;63979;55.644;37.734;2023-08-17T10:06:34;5.03;;;2.90;;
75408;SDS011;63979;55.644;37.734;2023-08-17T10:11:40;3.85;;;2.95;;
75408;SDS011;63979;55.644;37.734;2023-08-17T10:16:44;4.15;;;2.40;;
75408;SDS011;63979;55.644;37.734;2023-08-17T10:22:03;4.50;;;2.88;;
75408;SDS011;63979;55.644;37.734;2023-08-17T10:27:10;4.80;;;2.95;;
75408;SDS011;63979;55.644;37.734;2023-08-17T10:32:12;3.65;;;2.97;;
75408;SDS011;63979;55.644;37.734;2023-08-17T10:37:14;5.65;;;2.95;;
75408;SDS011;63979;55.644;37.734;2023-08-17T10:42:29;4.15;;;3.03;;
75408;SDS011;63979;55.644;37.734;2023-08-17T10:47:34;5.55;;;3.03;;
75408;SDS011;63979;55.644;37.734;2023-08-17T10:52:36;3.53;;;2.50;;
75408;SDS011;63979;55.644;37.734;2023-08-17T10:57:39;4.30;;;2.50;;
75408;SDS011;63979;55.644;37.734;2023-08-17T11:02:44;3.72;;;2.80;;
75408;SDS011;63979;55.644;37.734;2023-08-17T11:07:52;5.07;;;2.92;;
75408;SDS011;63979;55.644;37.734;2023-08-17T11:12:53;5.53;;;2.88;;
75408;SDS011;63979;55.644;37.734;2023-08-17T11:18:00;4.57;;;2.50;;
75408;SDS011;63979;55.644;37.734;2023-08-17T11:23:01;3.35;;;2.60;;
75408;SDS011;63979;55.644;37.734;2023-08-17T11:28:03;5.95;;;2.75;;
75408;SDS011;63979;55.644;37.734;2023-08-17T11:33:06;4.00;;;2.40;;
75408;SDS011;63979;55.644;37.734;2023-08-17T11:38:09;5.47;;;3.35;;
75408;SDS011;63979;55.644;37.734;2023-08-17T11:43:10;3.65;;;2.97;;
75408;SDS011;63979;55.644;37.734;2023-08-17T11:48:11;4.93;;;2.80;;
75408;SDS011;63979;55.644;37.734;2023-08-17T11:53:12;5.30;;;3.13;;
75408;SDS011;63979;55.644;37.734;2023-08-17T11:58:14;3.53;;;2.72;;
75408;SDS011;63979;55.644;37.734;2023-08-17T12:03:15;4.00;;;2.28;;
75408;SDS011;63979;55.644;37.734;2023-08-17T12:08:16;4.38;;;2.40;;
75408;SDS011;63979;55.644;37.734;2023-08-17T12:13:18;7.45;;;2.75;;
75408;SDS011;63979;55.644;37.734;2023-08-17T12:18:20;9.32;;;2.85;;
75408;SDS011;63979;55.644;37.734;2023-08-17T12:23:22;3.80;;;2.60;;
75408;SDS011;63979;55.644;37.734;2023-08-17T12:28:23;3.97;;;2.63;;
75408;SDS011;63979;55.644;37.734;2023-08-17T12:33:24;3.15;;;2.38;;
75408;SDS011;63979;55.644;37.734;2023-08-17T12:38:26;3.70;;;2.55;;
75408;SDS011;63979;55.644;37.734;2023-08-17T12:43:27;3.63;;;2.83;;
75408;SDS011;63979;55.644;37.734;2023-08-17T12:48:28;7.18;;;3.25;;
75408;SDS011;63979;55.644;37.734;2023-08-17T12:53:29;5.95;;;2.38;;
75408;SDS011;63979;55.644;37.734;2023-08-17T12:58:30;4.38;;;2.20;;
75408;SDS011;63979;55.644;37.734;2023-08-17T13:03:31;4.35;;;2.80;;
75408;SDS011;63979;55.644;37.734;2023-08-17T13:08:32;4.88;;;3.05;;
75408;SDS011;63979;55.644;37.734;2023-08-17T13:13:33;3.42;;;2.47;;
75408;SDS011;63979;55.644;37.734;2023-08-17T13:18:34;4.00;;;2.95;;
75408;SDS011;63979;55.644;37.734;2023-08-17T13:23:35;3.80;;;2.35;;
75408;SDS011;63979;55.644;37.734;2023-08-17T13:28:36;3.90;;;2.45;;
75408;SDS011;63979;55.644;37.734;2023-08-17T13:33:37;4.43;;;2.80;;
75408;SDS011;63979;55.644;37.734;2023-08-17T13:38:38;5.55;;;3.10;;
75408;SDS011;63979;55.644;37.734;2023-08-17T13:43:40;5.60;;;2.47;;
75408;SDS011;63979;55.644;37.734;2023-08-17T13:48:41;4.15;;;3.42;;
75408;SDS011;63979;55.644;37.734;2023-08-17T13:53:42;3.97;;;2.80;;
75408;SDS011;63979;55.644;37.734;2023-08-17T13:58:43;3.35;;;3.05;;
75408;SDS011;63979;55.644;37.734;2023-08-17T14:03:44;6.22;;;3.17;;
75408;SDS011;63979;55.644;37.734;2023-08-17T14:08:45;6.85;;;2.85;;
75408;SDS011;63979;55.644;37.734;2023-08-17T14:13:46;4.32;;;3.08;;
75408;SDS011;63979;55.644;37.734;2023-08-17T14:18:48;8.32;;;3.08;;
75408;SDS011;63979;55.644;37.734;2023-08-17T14:23:49;7.05;;;3.50;;
75408;SDS011;63979;55.644;37.734;2023-08-17T14:28:49;5.50;;;3.08;;
75408;SDS011;63979;55.644;37.734;2023-08-17T14:33:50;5.05;;;3.67;;
75408;SDS011;63979;55.644;37.734;2023-08-17T14:38:52;5.03;;;2.47;;
75408;SDS011;63979;55.644;37.734;2023-08-17T14:43:53;9.23;;;5.90;;
75408;SDS011;63979;55.644;37.734;2023-08-17T14:48:54;5.18;;;3.35;;
75408;SDS011;63979;55.644;37.734;2023-08-17T14:53:55;6.38;;;3.15;;
75408;SDS011;63979;55.644;37.734;2023-08-17T14:58:56;8.23;;;3.13;;
75408;SDS011;63979;55.644;37.734;2023-08-17T15:03:57;6.85;;;2.80;;
75408;SDS011;63979;55.644;37.734;2023-08-17T15:08:59;3.80;;;3.13;;
75408;SDS011;63979;55.644;37.734;2023-08-17T15:14:00;5.30;;;2.88;;
75408;SDS011;63979;55.644;37.734;2023-08-17T15:19:01;6.03;;;2.88;;
75408;SDS011;63979;55.644;37.734;2023-08-17T15:24:03;4.78;;;2.80;;
75408;SDS011;63979;55.644;37.734;2023-08-17T15:29:05;5.28;;;3.47;;
75408;SDS011;63979;55.644;37.734;2023-08-17T15:34:06;3.53;;;2.65;;
75408;SDS011;63979;55.644;37.734;2023-08-17T15:39:07;4.30;;;3.30;;
75408;SDS011;63979;55.644;37.734;2023-08-17T15:44:09;4.22;;;3.25;;
75408;SDS011;63979;55.644;37.734;2023-08-17T15:49:10;5.97;;;4.00;;
75408;SDS011;63979;55.644;37.734;2023-08-17T15:54:14;6.28;;;3.65;;
75408;SDS011;63979;55.644;37.734;2023-08-17T15:59:19;6.53;;;4.38;;
75408;SDS011;63979;55.644;37.734;2023-08-17T16:04:20;5.47;;;3.30;;
75408;SDS011;63979;55.644;37.734;2023-08-17T16:09:21;5.47;;;4.22;;
75408;SDS011;63979;55.644;37.734;2023-08-17T16:14:22;9.60;;;3.60;;
75408;SDS011;63979;55.644;37.734;2023-08-17T16:19:23;7.05;;;3.80;;
75408;SDS011;63979;55.644;37.734;2023-08-17T16:24:24;7.97;;;4.32;;
75408;SDS011;63979;55.644;37.734;2023-08-17T16:29:25;5.75;;;4.07;;
75408;SDS011;63979;55.644;37.734;2023-08-17T16:34:26;9.65;;;4.53;;
75408;SDS011;63979;55.644;37.734;2023-08-17T16:39:31;6.43;;;4.03;;
75408;SDS011;63979;55.644;37.734;2023-08-17T16:44:33;9.23;;;4.53;;
75408;SDS011;63979;55.644;37.734;2023-08-17T16:49:34;10.27;;;5.30;;
75408;SDS011;63979;55.644;37.734;2023-08-17T16:54:36;9.15;;;4.97;;
75408;SDS011;63979;55.644;37.734;2023-08-17T16:59:38;7.40;;;5.10;;
75408;SDS011;63979;55.644;37.734;2023-08-17T17:04:39;10.85;;;5.80;;
75408;SDS011;63979;55.644;37.734;2023-08-17T17:09:40;12.07;;;4.90;;
75408;SDS011;63979;55.644;37.734;2023-08-17T17:14:41;7.03;;;5.45;;
75408;SDS011;63979;55.644;37.734;2023-08-17T17:19:42;7.95;;;6.03;;
75408;SDS011;63979;55.644;37.734;2023-08-17T17:24:43;11.73;;;6.03;;
75408;SDS011;63979;55.644;37.734;2023-08-17T17:29:45;19.23;;;7.18;;
75408;SDS011;63979;55.644;37.734;2023-08-17T17:34:46;9.20;;;5.70;;
75408;SDS011;63979;55.644;37.734;2023-08-17T17:39:47;9.30;;;5.65;;
75408;SDS011;63979;55.644;37.734;2023-08-17T17:44:48;11.13;;;6.80;;
75408;SDS011;63979;55.644;37.734;2023-08-17T17:49:49;9.50;;;6.70;;
75408;SDS011;63979;55.644;37.734;2023-08-17T17:54:50;20.77;;;8.70;;
75408;SDS011;63979;55.644;37.734;2023-08-17T17:59:51;12.85;;;7.63;;
75408;SDS011;63979;55.644;37.734;2023-08-17T18:04:52;9.95;;;6.15;;
75408;SDS011;63979;55.644;37.734;2023-08-17T18:09:54;13.93;;;7.07;;
75408;SDS011;63979;55.644;37.734;2023-08-17T18:14:56;9.38;;;7.07;;
75408;SDS011;63979;55.644;37.734;2023-08-17T18:19:58;14.95;;;8.35;;
75408;SDS011;63979;55.644;37.734;2023-08-17T18:24:59;14.70;;;9.18;;
75408;SDS011;63979;55.644;37.734;2023-08-17T18:30:00;11.98;;;7.63;;
75408;SDS011;63979;55.644;37.734;2023-08-17T18:35:01;12.60;;;7.10;;
75408;SDS011;63979;55.644;37.734;2023-08-17T18:40:03;15.02;;;8.63;;
75408;SDS011;63979;55.644;37.734;2023-08-17T18:45:06;15.10;;;8.60;;
75408;SDS011;63979;55.644;37.734;2023-08-17T18:50:07;13.55;;;8.43;;
75408;SDS011;63979;55.644;37.734;2023-08-17T18:55:09;17.10;;;8.70;;
75408;SDS011;63979;55.644;37.734;2023-08-17T19:00:13;20.92;;;10.60;;
75408;SDS011;63979;55.644;37.734;2023-08-17T19:05:15;15.00;;;10.30;;
75408;SDS011;63979;55.644;37.734;2023-08-17T19:10:17;17.95;;;10.93;;
75408;SDS011;63979;55.644;37.734;2023-08-17T19:15:19;20.65;;;11.57;;
75408;SDS011;63979;55.644;37.734;2023-08-17T19:20:21;14.65;;;10.48;;
75408;SDS011;63979;55.644;37.734;2023-08-17T19:25:22;22.30;;;11.32;;
75408;SDS011;63979;55.644;37.734;2023-08-17T19:30:23;17.23;;;10.55;;
75408;SDS011;63979;55.644;37.734;2023-08-17T19:35:25;23.30;;;10.48;;
75408;SDS011;63979;55.644;37.734;2023-08-17T19:40:27;21.63;;;10.02;;
75408;SDS011;63979;55.644;37.734;2023-08-17T19:45:28;19.30;;;11.55;;
75408;SDS011;63979;55.644;37.734;2023-08-17T19:50:29;19.40;;;10.02;;
75408;SDS011;63979;55.644;37.734;2023-08-17T19:55:30;17.52;;;10.15;;
75408;SDS011;63979;55.644;37.734;2023-08-17T20:00:32;17.15;;;9.70;;
75408;SDS011;63979;55.644;37.734;2023-08-17T20:05:33;17.30;;;9.23;;
75408;SDS011;63979;55.644;37.734;2023-08-17T20:10:34;15.20;;;9.63;;
75408;SDS011;63979;55.644;37.734;2023-08-17T20:15:35;16.25;;;9.23;;
75408;SDS011;63979;55.644;37.734;2023-08-17T20:20:36;23.27;;;9.52;;
75408;SDS011;63979;55.644;37.734;2023-08-17T20:25:38;23.40;;;10.07;;
75408;SDS011;63979;55.644;37.734;2023-08-17T20:30:39;18.48;;;9.73;;
75408;SDS011;63979;55.644;37.734;2023-08-17T20:35:40;17.13;;;10.32;;
75408;SDS011;63979;55.644;37.734;2023-08-17T20:40:50;21.80;;;11.70;;
75408;SDS011;63979;55.644;37.734;2023-08-17T20:45:52;19.23;;;10.73;;
75408;SDS011;63979;55.644;37.734;2023-08-17T20:50:54;21.65;;;10.88;;
75408;SDS011;63979;55.644;37.734;2023-08-17T20:55:55;20.92;;;11.15;;
75408;SDS011;63979;55.644;37.734;2023-08-17T21:00:57;19.60;;;9.60;;
75408;SDS011;63979;55.644;37.734;2023-08-17T21:06:03;19.48;;;11.38;;
75408;SDS011;63979;55.644;37.734;2023-08-17T21:11:07;15.45;;;9.85;;
75408;SDS011;63979;55.644;37.734;2023-08-17T21:21:09;20.13;;;10.50;;
75408;SDS011;63979;55.644;37.734;2023-08-17T21:31:11;15.27;;;9.80;;
75408;SDS011;63979;55.644;37.734;2023-08-17T21:41:13;17.25;;;9.10;;
75408;SDS011;63979;55.644;37.734;2023-08-17T21:51:15;18.65;;;9.82;;
75408;SDS011;63979;55.644;37.734;2023-08-17T21:56:16;19.75;;;9.90;;
75408;SDS011;63979;55.644;37.734;2023-08-17T22:01:17;15.77;;;9.88;;
75408;SDS011;63979;55.644;37.734;2023-08-17T22:11:19;18.00;;;10.23;;
75408;SDS011;63979;55.644;37.734;2023-08-17T22:21:21;26.70;;;11.02;;
75408;SDS011;63979;55.644;37.734;2023-08-17T22:31:22;16.10;;;10.75;;
75408;SDS011;63979;55.644;37.734;2023-08-17T22:41:24;19.13;;;10.60;;
75408;SDS011;63979;55.644;37.734;2023-08-17T22:51:26;15.82;;;10.90;;
75408;SDS011;63979;55.644;37.734;2023-08-17T23:01:28;15.77;;;10.40;;
75408;SDS011;63979;55.644;37.734;2023-08-17T23:06:29;26.38;;;11.00;;
75408;SDS011;63979;55.644;37.734;2023-08-17T23:11:30;17.85;;;10.25;;
75408;SDS011;63979;55.644;37.734;2023-08-17T23:16:31;19.40;;;11.00;;
75408;SDS011;63979;55.644;37.734;2023-08-17T23:26:32;24.45;;;11.88;;
75408;SDS011;63979;55.644;37.734;2023-08-17T23:31:33;19.48;;;10.90;;
75408;SDS011;63979;55.644;37.734;2023-08-17T23:36:35;19.70;;;11.48;;
75408;SDS011;63979;55.644;37.734;2023-08-17T23:41:36;20.70;;;9.38;;
75408;SDS011;63979;55.644;37.734;2023-08-17T23:46:37;21.42;;;10.70;;
75408;SDS011;63979;55.644;37.734;2023-08-17T23:51:38;22.38;;;10.23;;
75408;SDS011;63979;55.644;37.734;2023-08-17T23:56:39;18.77;;;10.10;;
